sensor_id;sensor_type;location;lat;lon;timestamp;P1;durP1;ratioP1;P2;durP2;ratioP2
18249;SDS011;27980;52.126;5.572;2024-01-06T00:00:19;13.52;;;6.63;;
18249;SDS011;27980;52.126;5.572;2024-01-06T00:02:46;12.32;;;6.68;;
18249;SDS011;27980;52.126;5.572;2024-01-06T00:05:12;12.52;;;6.75;;
18249;SDS011;27980;52.126;5.572;2024-01-06T00:07:39;12.73;;;6.28;;
18249;SDS011;27980;52.126;5.572;2024-01-06T00:10:07;12.95;;;7.07;;
18249;SDS011;27980;52.126;5.572;2024-01-06T00:12:33;14.48;;;6.80;;
18249;SDS011;27980;52.126;5.572;2024-01-06T00:15:00;14.85;;;7.68;;
18249;SDS011;27980;52.126;5.572;2024-01-06T00:17:26;14.82;;;7.65;;
18249;SDS011;27980;52.126;5.572;2024-01-06T00:19:53;13.35;;;7.38;;
18249;SDS011;27980;52.126;5.572;2024-01-06T00:22:20;15.68;;;8.15;;
18249;SDS011;27980;52.126;5.572;2024-01-06T00:24:46;12.00;;;6.57;;
18249;SDS011;27980;52.126;5.572;2024-01-06T00:27:14;14.32;;;7.35;;
18249;SDS011;27980;52.126;5.572;2024-01-06T00:29:41;11.77;;;6.82;;
18249;SDS011;27980;52.126;5.572;2024-01-06T00:32:07;12.82;;;7.15;;
18249;SDS011;27980;52.126;5.572;2024-01-06T00:34:34;10.57;;;6.65;;
18249;SDS011;27980;52.126;5.572;2024-01-06T00:37:00;9.18;;;5.88;;
18249;SDS011;27980;52.126;5.572;2024-01-06T00:39:27;8.77;;;5.70;;
18249;SDS011;27980;52.126;5.572;2024-01-06T00:41:53;13.48;;;6.75;;
18249;SDS011;27980;52.126;5.572;2024-01-06T00:44:21;13.45;;;6.38;;
18249;SDS011;27980;52.126;5.572;2024-01-06T00:46:47;14.25;;;7.03;;
18249;SDS011;27980;52.126;5.572;2024-01-06T00:49:14;10.60;;;6.18;;
18249;SDS011;27980;52.126;5.572;2024-01-06T00:51:40;13.23;;;7.00;;
18249;SDS011;27980;52.126;5.572;2024-01-06T00:54:07;12.73;;;6.40;;
18249;SDS011;27980;52.126;5.572;2024-01-06T00:56:33;13.98;;;7.78;;
18249;SDS011;27980;52.126;5.572;2024-01-06T00:58:59;12.82;;;7.00;;
18249;SDS011;27980;52.126;5.572;2024-01-06T01:01:27;11.20;;;6.45;;
18249;SDS011;27980;52.126;5.572;2024-01-06T01:03:53;13.07;;;6.85;;
18249;SDS011;27980;52.126;5.572;2024-01-06T01:06:20;12.63;;;6.78;;
18249;SDS011;27980;52.126;5.572;2024-01-06T01:08:46;13.55;;;7.57;;
18249;SDS011;27980;52.126;5.572;2024-01-06T01:11:13;11.95;;;6.43;;
18249;SDS011;27980;52.126;5.572;2024-01-06T01:13:39;15.68;;;7.50;;
18249;SDS011;27980;52.126;5.572;2024-01-06T01:16:06;12.30;;;7.50;;
18249;SDS011;27980;52.126;5.572;2024-01-06T01:18:33;14.00;;;7.78;;
18249;SDS011;27980;52.126;5.572;2024-01-06T01:21:00;14.43;;;8.43;;
18249;SDS011;27980;52.126;5.572;2024-01-06T01:23:26;14.27;;;7.75;;
18249;SDS011;27980;52.126;5.572;2024-01-06T01:25:53;15.57;;;7.82;;
18249;SDS011;27980;52.126;5.572;2024-01-06T01:28:20;16.73;;;9.13;;
18249;SDS011;27980;52.126;5.572;2024-01-06T01:30:48;14.65;;;8.18;;
18249;SDS011;27980;52.126;5.572;2024-01-06T01:33:14;16.45;;;8.48;;
18249;SDS011;27980;52.126;5.572;2024-01-06T01:35:42;18.55;;;8.63;;
18249;SDS011;27980;52.126;5.572;2024-01-06T01:38:09;15.85;;;8.57;;
18249;SDS011;27980;52.126;5.572;2024-01-06T01:40:35;16.50;;;8.85;;
18249;SDS011;27980;52.126;5.572;2024-01-06T01:43:01;15.73;;;8.55;;
18249;SDS011;27980;52.126;5.572;2024-01-06T01:45:28;14.63;;;7.88;;
18249;SDS011;27980;52.126;5.572;2024-01-06T01:47:54;14.32;;;8.13;;
18249;SDS011;27980;52.126;5.572;2024-01-06T01:50:20;14.85;;;8.43;;
18249;SDS011;27980;52.126;5.572;2024-01-06T01:52:49;13.32;;;7.43;;
18249;SDS011;27980;52.126;5.572;2024-01-06T01:55:15;14.15;;;7.55;;
18249;SDS011;27980;52.126;5.572;2024-01-06T01:57:42;15.90;;;8.57;;
18249;SDS011;27980;52.126;5.572;2024-01-06T02:00:09;14.27;;;8.18;;
18249;SDS011;27980;52.126;5.572;2024-01-06T02:02:38;12.60;;;6.85;;
18249;SDS011;27980;52.126;5.572;2024-01-06T02:05:04;11.57;;;7.13;;
18249;SDS011;27980;52.126;5.572;2024-01-06T02:07:31;13.52;;;7.15;;
18249;SDS011;27980;52.126;5.572;2024-01-06T02:09:58;13.15;;;7.20;;
18249;SDS011;27980;52.126;5.572;2024-01-06T02:12:25;12.35;;;7.07;;
18249;SDS011;27980;52.126;5.572;2024-01-06T02:14:51;12.30;;;6.35;;
18249;SDS011;27980;52.126;5.572;2024-01-06T02:17:18;14.48;;;7.25;;
18249;SDS011;27980;52.126;5.572;2024-01-06T02:19:44;13.70;;;7.50;;
18249;SDS011;27980;52.126;5.572;2024-01-06T02:22:12;12.15;;;7.45;;
18249;SDS011;27980;52.126;5.572;2024-01-06T02:24:38;13.38;;;7.55;;
18249;SDS011;27980;52.126;5.572;2024-01-06T02:27:05;13.85;;;8.02;;
18249;SDS011;27980;52.126;5.572;2024-01-06T02:29:31;16.95;;;8.35;;
18249;SDS011;27980;52.126;5.572;2024-01-06T02:31:57;13.90;;;7.90;;
18249;SDS011;27980;52.126;5.572;2024-01-06T02:34:24;13.13;;;7.40;;
18249;SDS011;27980;52.126;5.572;2024-01-06T02:36:51;16.13;;;8.90;;
18249;SDS011;27980;52.126;5.572;2024-01-06T02:39:18;13.52;;;7.88;;
18249;SDS011;27980;52.126;5.572;2024-01-06T02:41:45;13.73;;;7.63;;
18249;SDS011;27980;52.126;5.572;2024-01-06T02:44:11;15.50;;;8.63;;
18249;SDS011;27980;52.126;5.572;2024-01-06T02:46:39;13.50;;;7.95;;
18249;SDS011;27980;52.126;5.572;2024-01-06T02:49:05;16.30;;;8.32;;
18249;SDS011;27980;52.126;5.572;2024-01-06T02:51:31;15.93;;;8.80;;
18249;SDS011;27980;52.126;5.572;2024-01-06T02:53:58;15.73;;;8.38;;
18249;SDS011;27980;52.126;5.572;2024-01-06T02:56:26;15.50;;;8.77;;
18249;SDS011;27980;52.126;5.572;2024-01-06T02:58:52;14.75;;;8.80;;
18249;SDS011;27980;52.126;5.572;2024-01-06T03:01:18;16.40;;;9.13;;
18249;SDS011;27980;52.126;5.572;2024-01-06T03:03:45;15.35;;;9.07;;
18249;SDS011;27980;52.126;5.572;2024-01-06T03:06:11;17.65;;;9.15;;
18249;SDS011;27980;52.126;5.572;2024-01-06T03:08:38;15.98;;;9.20;;
18249;SDS011;27980;52.126;5.572;2024-01-06T03:11:04;17.48;;;9.75;;
18249;SDS011;27980;52.126;5.572;2024-01-06T03:13:32;15.70;;;8.40;;
18249;SDS011;27980;52.126;5.572;2024-01-06T03:16:01;18.45;;;9.82;;
18249;SDS011;27980;52.126;5.572;2024-01-06T03:18:27;16.60;;;9.20;;
18249;SDS011;27980;52.126;5.572;2024-01-06T03:20:53;21.25;;;10.60;;
18249;SDS011;27980;52.126;5.572;2024-01-06T03:23:20;19.23;;;10.07;;
18249;SDS011;27980;52.126;5.572;2024-01-06T03:25:46;23.20;;;9.25;;
18249;SDS011;27980;52.126;5.572;2024-01-06T03:28:13;18.55;;;9.00;;
18249;SDS011;27980;52.126;5.572;2024-01-06T03:30:40;14.07;;;7.85;;
18249;SDS011;27980;52.126;5.572;2024-01-06T03:33:07;17.13;;;8.93;;
18249;SDS011;27980;52.126;5.572;2024-01-06T03:35:33;18.70;;;8.95;;
18249;SDS011;27980;52.126;5.572;2024-01-06T03:37:59;16.75;;;8.70;;
18249;SDS011;27980;52.126;5.572;2024-01-06T03:40:26;17.95;;;8.88;;
18249;SDS011;27980;52.126;5.572;2024-01-06T03:42:52;16.50;;;9.35;;
18249;SDS011;27980;52.126;5.572;2024-01-06T03:45:19;16.48;;;9.15;;
18249;SDS011;27980;52.126;5.572;2024-01-06T03:47:46;16.17;;;8.70;;
18249;SDS011;27980;52.126;5.572;2024-01-06T03:50:13;18.38;;;8.45;;
18249;SDS011;27980;52.126;5.572;2024-01-06T03:52:39;18.70;;;9.50;;
18249;SDS011;27980;52.126;5.572;2024-01-06T03:55:06;18.83;;;9.02;;
18249;SDS011;27980;52.126;5.572;2024-01-06T03:57:32;19.83;;;9.75;;
18249;SDS011;27980;52.126;5.572;2024-01-06T03:59:59;18.40;;;9.98;;
18249;SDS011;27980;52.126;5.572;2024-01-06T04:02:25;18.67;;;9.50;;
18249;SDS011;27980;52.126;5.572;2024-01-06T04:04:53;17.35;;;9.48;;
18249;SDS011;27980;52.126;5.572;2024-01-06T04:07:19;17.83;;;9.40;;
18249;SDS011;27980;52.126;5.572;2024-01-06T04:09:45;16.02;;;8.93;;
18249;SDS011;27980;52.126;5.572;2024-01-06T04:12:12;17.23;;;8.75;;
18249;SDS011;27980;52.126;5.572;2024-01-06T04:14:38;17.80;;;8.45;;
18249;SDS011;27980;52.126;5.572;2024-01-06T04:17:04;17.10;;;8.50;;
18249;SDS011;27980;52.126;5.572;2024-01-06T04:19:30;14.52;;;7.47;;
18249;SDS011;27980;52.126;5.572;2024-01-06T04:21:59;16.80;;;8.13;;
18249;SDS011;27980;52.126;5.572;2024-01-06T04:24:25;14.35;;;7.97;;
18249;SDS011;27980;52.126;5.572;2024-01-06T04:26:52;15.13;;;6.72;;
18249;SDS011;27980;52.126;5.572;2024-01-06T04:29:18;10.23;;;5.78;;
18249;SDS011;27980;52.126;5.572;2024-01-06T04:31:44;13.75;;;6.32;;
18249;SDS011;27980;52.126;5.572;2024-01-06T04:34:11;11.00;;;6.28;;
18249;SDS011;27980;52.126;5.572;2024-01-06T04:36:37;12.43;;;6.78;;
18249;SDS011;27980;52.126;5.572;2024-01-06T04:39:05;10.00;;;5.55;;
18249;SDS011;27980;52.126;5.572;2024-01-06T04:41:31;11.85;;;6.03;;
18249;SDS011;27980;52.126;5.572;2024-01-06T04:43:58;11.73;;;6.22;;
18249;SDS011;27980;52.126;5.572;2024-01-06T04:46:24;11.85;;;5.97;;
18249;SDS011;27980;52.126;5.572;2024-01-06T04:48:50;11.75;;;6.28;;
18249;SDS011;27980;52.126;5.572;2024-01-06T04:51:17;10.20;;;6.28;;
18249;SDS011;27980;52.126;5.572;2024-01-06T04:53:43;11.65;;;5.63;;
18249;SDS011;27980;52.126;5.572;2024-01-06T04:56:11;10.75;;;5.80;;
18249;SDS011;27980;52.126;5.572;2024-01-06T04:58:38;10.82;;;6.60;;
18249;SDS011;27980;52.126;5.572;2024-01-06T05:01:04;10.82;;;6.05;;
18249;SDS011;27980;52.126;5.572;2024-01-06T05:03:31;11.98;;;6.88;;
18249;SDS011;27980;52.126;5.572;2024-01-06T05:05:57;13.68;;;7.32;;
18249;SDS011;27980;52.126;5.572;2024-01-06T05:08:23;12.27;;;6.47;;
18249;SDS011;27980;52.126;5.572;2024-01-06T05:10:51;11.52;;;6.75;;
18249;SDS011;27980;52.126;5.572;2024-01-06T05:13:19;12.23;;;7.07;;
18249;SDS011;27980;52.126;5.572;2024-01-06T05:15:46;10.52;;;6.70;;
18249;SDS011;27980;52.126;5.572;2024-01-06T05:18:12;9.90;;;6.15;;
18249;SDS011;27980;52.126;5.572;2024-01-06T05:20:38;13.15;;;7.32;;
18249;SDS011;27980;52.126;5.572;2024-01-06T05:23:06;14.90;;;6.43;;
18249;SDS011;27980;52.126;5.572;2024-01-06T05:25:34;10.52;;;6.53;;
18249;SDS011;27980;52.126;5.572;2024-01-06T05:28:00;11.00;;;7.10;;
18249;SDS011;27980;52.126;5.572;2024-01-06T05:30:27;12.68;;;6.43;;
18249;SDS011;27980;52.126;5.572;2024-01-06T05:32:54;11.23;;;6.65;;
18249;SDS011;27980;52.126;5.572;2024-01-06T05:35:20;13.95;;;6.88;;
18249;SDS011;27980;52.126;5.572;2024-01-06T05:37:47;14.93;;;8.10;;
18249;SDS011;27980;52.126;5.572;2024-01-06T05:40:13;13.88;;;7.50;;
18249;SDS011;27980;52.126;5.572;2024-01-06T05:42:40;13.95;;;6.95;;
18249;SDS011;27980;52.126;5.572;2024-01-06T05:45:07;11.00;;;6.00;;
18249;SDS011;27980;52.126;5.572;2024-01-06T05:47:37;14.48;;;7.72;;
18249;SDS011;27980;52.126;5.572;2024-01-06T05:50:04;10.98;;;6.68;;
18249;SDS011;27980;52.126;5.572;2024-01-06T05:52:31;13.20;;;7.18;;
18249;SDS011;27980;52.126;5.572;2024-01-06T05:54:57;12.10;;;7.00;;
18249;SDS011;27980;52.126;5.572;2024-01-06T05:57:24;12.07;;;6.93;;
18249;SDS011;27980;52.126;5.572;2024-01-06T05:59:50;12.00;;;7.25;;
18249;SDS011;27980;52.126;5.572;2024-01-06T06:02:17;12.07;;;6.95;;
18249;SDS011;27980;52.126;5.572;2024-01-06T06:04:44;11.85;;;7.45;;
18249;SDS011;27980;52.126;5.572;2024-01-06T06:07:11;13.65;;;7.60;;
18249;SDS011;27980;52.126;5.572;2024-01-06T06:09:37;13.25;;;7.28;;
18249;SDS011;27980;52.126;5.572;2024-01-06T06:12:05;12.95;;;7.70;;
18249;SDS011;27980;52.126;5.572;2024-01-06T06:14:32;11.57;;;7.18;;
18249;SDS011;27980;52.126;5.572;2024-01-06T06:16:58;12.77;;;7.45;;
18249;SDS011;27980;52.126;5.572;2024-01-06T06:19:24;13.10;;;7.30;;
18249;SDS011;27980;52.126;5.572;2024-01-06T06:21:52;13.30;;;7.38;;
18249;SDS011;27980;52.126;5.572;2024-01-06T06:24:19;11.73;;;6.75;;
18249;SDS011;27980;52.126;5.572;2024-01-06T06:26:45;10.88;;;6.90;;
18249;SDS011;27980;52.126;5.572;2024-01-06T06:29:11;12.02;;;7.90;;
18249;SDS011;27980;52.126;5.572;2024-01-06T06:31:38;12.82;;;7.78;;
18249;SDS011;27980;52.126;5.572;2024-01-06T06:34:04;11.60;;;7.15;;
18249;SDS011;27980;52.126;5.572;2024-01-06T06:36:31;11.07;;;7.20;;
18249;SDS011;27980;52.126;5.572;2024-01-06T06:39:01;13.88;;;7.40;;
18249;SDS011;27980;52.126;5.572;2024-01-06T06:41:30;13.90;;;7.40;;
18249;SDS011;27980;52.126;5.572;2024-01-06T06:43:57;16.20;;;7.03;;
18249;SDS011;27980;52.126;5.572;2024-01-06T06:46:23;11.75;;;6.32;;
18249;SDS011;27980;52.126;5.572;2024-01-06T06:48:49;10.95;;;6.68;;
18249;SDS011;27980;52.126;5.572;2024-01-06T06:51:16;13.48;;;7.28;;
18249;SDS011;27980;52.126;5.572;2024-01-06T06:53:42;10.20;;;6.78;;
18249;SDS011;27980;52.126;5.572;2024-01-06T06:56:10;10.75;;;6.28;;
18249;SDS011;27980;52.126;5.572;2024-01-06T06:58:36;11.30;;;6.72;;
18249;SDS011;27980;52.126;5.572;2024-01-06T07:01:03;12.48;;;7.25;;
18249;SDS011;27980;52.126;5.572;2024-01-06T07:03:30;13.40;;;6.72;;
18249;SDS011;27980;52.126;5.572;2024-01-06T07:05:56;10.82;;;6.45;;
18249;SDS011;27980;52.126;5.572;2024-01-06T07:08:23;12.15;;;6.60;;
18249;SDS011;27980;52.126;5.572;2024-01-06T07:10:49;11.10;;;6.50;;
18249;SDS011;27980;52.126;5.572;2024-01-06T07:13:17;9.02;;;5.97;;
18249;SDS011;27980;52.126;5.572;2024-01-06T07:15:43;12.38;;;6.60;;
18249;SDS011;27980;52.126;5.572;2024-01-06T07:18:10;12.88;;;7.05;;
18249;SDS011;27980;52.126;5.572;2024-01-06T07:20:37;13.48;;;7.10;;
18249;SDS011;27980;52.126;5.572;2024-01-06T07:23:03;12.02;;;6.82;;
18249;SDS011;27980;52.126;5.572;2024-01-06T07:25:30;9.75;;;5.63;;
18249;SDS011;27980;52.126;5.572;2024-01-06T07:27:58;11.70;;;6.50;;
18249;SDS011;27980;52.126;5.572;2024-01-06T07:30:26;11.75;;;6.93;;
18249;SDS011;27980;52.126;5.572;2024-01-06T07:32:53;13.20;;;6.43;;
18249;SDS011;27980;52.126;5.572;2024-01-06T07:35:19;9.82;;;6.18;;
18249;SDS011;27980;52.126;5.572;2024-01-06T07:37:46;12.43;;;6.47;;
18249;SDS011;27980;52.126;5.572;2024-01-06T07:40:12;9.93;;;5.90;;
18249;SDS011;27980;52.126;5.572;2024-01-06T07:42:41;11.90;;;6.75;;
18249;SDS011;27980;52.126;5.572;2024-01-06T07:45:08;10.77;;;6.10;;
18249;SDS011;27980;52.126;5.572;2024-01-06T07:47:36;10.27;;;6.60;;
18249;SDS011;27980;52.126;5.572;2024-01-06T07:50:03;10.20;;;6.03;;
18249;SDS011;27980;52.126;5.572;2024-01-06T07:52:30;9.32;;;6.07;;
18249;SDS011;27980;52.126;5.572;2024-01-06T07:54:57;11.55;;;7.40;;
18249;SDS011;27980;52.126;5.572;2024-01-06T07:57:24;10.50;;;6.40;;
18249;SDS011;27980;52.126;5.572;2024-01-06T07:59:50;12.60;;;6.65;;
18249;SDS011;27980;52.126;5.572;2024-01-06T08:02:17;11.35;;;6.63;;
18249;SDS011;27980;52.126;5.572;2024-01-06T08:04:45;10.40;;;6.63;;
18249;SDS011;27980;52.126;5.572;2024-01-06T08:07:11;12.75;;;6.90;;
18249;SDS011;27980;52.126;5.572;2024-01-06T08:09:38;9.57;;;6.30;;
18249;SDS011;27980;52.126;5.572;2024-01-06T08:12:05;9.68;;;6.50;;
18249;SDS011;27980;52.126;5.572;2024-01-06T08:14:33;11.18;;;6.53;;
18249;SDS011;27980;52.126;5.572;2024-01-06T08:17:00;10.32;;;6.70;;
18249;SDS011;27980;52.126;5.572;2024-01-06T08:19:27;11.88;;;6.45;;
18249;SDS011;27980;52.126;5.572;2024-01-06T08:21:57;9.95;;;6.38;;
18249;SDS011;27980;52.126;5.572;2024-01-06T08:24:23;10.90;;;6.82;;
18249;SDS011;27980;52.126;5.572;2024-01-06T08:26:50;9.82;;;6.50;;
18249;SDS011;27980;52.126;5.572;2024-01-06T08:29:16;9.45;;;5.90;;
18249;SDS011;27980;52.126;5.572;2024-01-06T08:31:44;9.20;;;6.10;;
18249;SDS011;27980;52.126;5.572;2024-01-06T08:34:11;9.05;;;6.25;;
18249;SDS011;27980;52.126;5.572;2024-01-06T08:36:37;12.75;;;7.18;;
18249;SDS011;27980;52.126;5.572;2024-01-06T08:39:06;12.45;;;6.72;;
18249;SDS011;27980;52.126;5.572;2024-01-06T08:41:33;12.75;;;6.80;;
18249;SDS011;27980;52.126;5.572;2024-01-06T08:43:59;9.90;;;6.63;;
18249;SDS011;27980;52.126;5.572;2024-01-06T08:46:26;9.63;;;6.20;;
18249;SDS011;27980;52.126;5.572;2024-01-06T08:48:52;9.95;;;6.32;;
18249;SDS011;27980;52.126;5.572;2024-01-06T08:51:19;16.48;;;7.85;;
18249;SDS011;27980;52.126;5.572;2024-01-06T08:53:45;10.88;;;5.75;;
18249;SDS011;27980;52.126;5.572;2024-01-06T08:56:13;11.48;;;6.43;;
18249;SDS011;27980;52.126;5.572;2024-01-06T08:58:41;10.13;;;6.07;;
18249;SDS011;27980;52.126;5.572;2024-01-06T09:01:07;9.32;;;5.72;;
18249;SDS011;27980;52.126;5.572;2024-01-06T09:03:34;10.38;;;6.38;;
18249;SDS011;27980;52.126;5.572;2024-01-06T09:06:00;10.02;;;6.40;;
18249;SDS011;27980;52.126;5.572;2024-01-06T09:08:27;9.80;;;5.90;;
18249;SDS011;27980;52.126;5.572;2024-01-06T09:10:53;12.77;;;6.93;;
18249;SDS011;27980;52.126;5.572;2024-01-06T09:13:24;8.15;;;5.70;;
18249;SDS011;27980;52.126;5.572;2024-01-06T09:15:50;8.45;;;5.43;;
18249;SDS011;27980;52.126;5.572;2024-01-06T09:18:17;12.45;;;5.93;;
18249;SDS011;27980;52.126;5.572;2024-01-06T09:20:43;9.30;;;6.78;;
18249;SDS011;27980;52.126;5.572;2024-01-06T09:23:12;12.05;;;5.82;;
18249;SDS011;27980;52.126;5.572;2024-01-06T09:25:39;11.88;;;5.43;;
18249;SDS011;27980;52.126;5.572;2024-01-06T09:28:05;8.52;;;6.03;;
18249;SDS011;27980;52.126;5.572;2024-01-06T09:30:33;8.32;;;5.25;;
18249;SDS011;27980;52.126;5.572;2024-01-06T09:33:01;9.27;;;5.60;;
18249;SDS011;27980;52.126;5.572;2024-01-06T09:35:27;9.77;;;6.03;;
18249;SDS011;27980;52.126;5.572;2024-01-06T09:37:53;9.70;;;5.63;;
18249;SDS011;27980;52.126;5.572;2024-01-06T09:40:21;8.07;;;5.75;;
18249;SDS011;27980;52.126;5.572;2024-01-06T09:42:47;10.15;;;6.20;;
18249;SDS011;27980;52.126;5.572;2024-01-06T09:45:15;9.02;;;6.03;;
18249;SDS011;27980;52.126;5.572;2024-01-06T09:47:43;10.07;;;5.55;;
18249;SDS011;27980;52.126;5.572;2024-01-06T09:50:13;10.60;;;6.47;;
18249;SDS011;27980;52.126;5.572;2024-01-06T09:52:40;8.25;;;6.03;;
18249;SDS011;27980;52.126;5.572;2024-01-06T09:55:09;9.20;;;6.50;;
18249;SDS011;27980;52.126;5.572;2024-01-06T09:57:36;9.88;;;6.82;;
18249;SDS011;27980;52.126;5.572;2024-01-06T10:00:03;9.43;;;5.90;;
18249;SDS011;27980;52.126;5.572;2024-01-06T10:02:29;9.82;;;6.35;;
18249;SDS011;27980;52.126;5.572;2024-01-06T10:04:58;9.98;;;6.57;;
18249;SDS011;27980;52.126;5.572;2024-01-06T10:07:25;9.75;;;6.57;;
18249;SDS011;27980;52.126;5.572;2024-01-06T10:09:53;10.57;;;6.85;;
18249;SDS011;27980;52.126;5.572;2024-01-06T10:12:22;10.70;;;6.85;;
18249;SDS011;27980;52.126;5.572;2024-01-06T10:14:49;8.70;;;6.10;;
18249;SDS011;27980;52.126;5.572;2024-01-06T10:17:15;12.15;;;6.97;;
18249;SDS011;27980;52.126;5.572;2024-01-06T10:19:44;10.95;;;6.10;;
18249;SDS011;27980;52.126;5.572;2024-01-06T10:22:12;13.90;;;6.30;;
18249;SDS011;27980;52.126;5.572;2024-01-06T10:24:38;9.18;;;6.30;;
18249;SDS011;27980;52.126;5.572;2024-01-06T10:27:04;9.50;;;6.47;;
18249;SDS011;27980;52.126;5.572;2024-01-06T10:29:31;9.15;;;6.75;;
18249;SDS011;27980;52.126;5.572;2024-01-06T10:31:57;9.20;;;6.70;;
18249;SDS011;27980;52.126;5.572;2024-01-06T10:34:24;8.27;;;6.15;;
18249;SDS011;27980;52.126;5.572;2024-01-06T10:36:54;8.98;;;6.50;;
18249;SDS011;27980;52.126;5.572;2024-01-06T10:39:22;9.48;;;6.68;;
18249;SDS011;27980;52.126;5.572;2024-01-06T10:41:49;7.68;;;6.20;;
18249;SDS011;27980;52.126;5.572;2024-01-06T10:44:16;11.25;;;6.85;;
18249;SDS011;27980;52.126;5.572;2024-01-06T10:46:44;8.75;;;6.07;;
18249;SDS011;27980;52.126;5.572;2024-01-06T10:49:10;11.25;;;6.32;;
18249;SDS011;27980;52.126;5.572;2024-01-06T10:51:37;10.75;;;6.97;;
18249;SDS011;27980;52.126;5.572;2024-01-06T10:54:04;7.75;;;5.63;;
18249;SDS011;27980;52.126;5.572;2024-01-06T10:56:33;8.65;;;6.07;;
18249;SDS011;27980;52.126;5.572;2024-01-06T10:59:02;8.68;;;6.03;;
18249;SDS011;27980;52.126;5.572;2024-01-06T11:01:29;9.85;;;6.72;;
18249;SDS011;27980;52.126;5.572;2024-01-06T11:03:56;11.27;;;6.47;;
18249;SDS011;27980;52.126;5.572;2024-01-06T11:06:23;10.30;;;6.60;;
18249;SDS011;27980;52.126;5.572;2024-01-06T11:08:51;9.02;;;6.13;;
18249;SDS011;27980;52.126;5.572;2024-01-06T11:11:19;10.10;;;5.80;;
18249;SDS011;27980;52.126;5.572;2024-01-06T11:13:47;10.20;;;6.85;;
18249;SDS011;27980;52.126;5.572;2024-01-06T11:18:55;10.10;;;6.13;;
18249;SDS011;27980;52.126;5.572;2024-01-06T11:21:21;10.07;;;6.45;;
18249;SDS011;27980;52.126;5.572;2024-01-06T11:24:04;8.50;;;5.60;;
18249;SDS011;27980;52.126;5.572;2024-01-06T11:26:31;8.60;;;5.82;;
18249;SDS011;27980;52.126;5.572;2024-01-06T11:29:00;7.82;;;5.68;;
18249;SDS011;27980;52.126;5.572;2024-01-06T11:31:28;7.93;;;4.90;;
18249;SDS011;27980;52.126;5.572;2024-01-06T11:33:54;9.52;;;5.70;;
18249;SDS011;27980;52.126;5.572;2024-01-06T11:36:22;8.35;;;5.60;;
18249;SDS011;27980;52.126;5.572;2024-01-06T11:38:49;8.55;;;5.60;;
18249;SDS011;27980;52.126;5.572;2024-01-06T11:43:58;6.07;;;4.80;;
18249;SDS011;27980;52.126;5.572;2024-01-06T11:46:25;9.43;;;5.75;;
18249;SDS011;27980;52.126;5.572;2024-01-06T11:48:51;7.97;;;4.88;;
18249;SDS011;27980;52.126;5.572;2024-01-06T11:51:18;8.65;;;5.68;;
18249;SDS011;27980;52.126;5.572;2024-01-06T11:53:45;8.35;;;5.60;;
18249;SDS011;27980;52.126;5.572;2024-01-06T11:56:11;10.90;;;6.03;;
18249;SDS011;27980;52.126;5.572;2024-01-06T11:58:39;8.35;;;5.18;;
18249;SDS011;27980;52.126;5.572;2024-01-06T12:01:06;11.13;;;5.90;;
18249;SDS011;27980;52.126;5.572;2024-01-06T12:03:33;11.95;;;6.65;;
18249;SDS011;27980;52.126;5.572;2024-01-06T12:05:59;6.82;;;5.30;;
18249;SDS011;27980;52.126;5.572;2024-01-06T12:08:27;9.15;;;6.57;;
18249;SDS011;27980;52.126;5.572;2024-01-06T12:11:01;10.35;;;6.43;;
18249;SDS011;27980;52.126;5.572;2024-01-06T12:13:28;9.77;;;6.05;;
18249;SDS011;27980;52.126;5.572;2024-01-06T12:15:54;11.30;;;6.82;;
18249;SDS011;27980;52.126;5.572;2024-01-06T12:18:23;12.18;;;6.78;;
18249;SDS011;27980;52.126;5.572;2024-01-06T12:20:51;10.43;;;6.63;;
18249;SDS011;27980;52.126;5.572;2024-01-06T12:23:25;10.70;;;7.25;;
18249;SDS011;27980;52.126;5.572;2024-01-06T12:25:53;10.60;;;6.95;;
18249;SDS011;27980;52.126;5.572;2024-01-06T12:28:19;11.70;;;7.28;;
18249;SDS011;27980;52.126;5.572;2024-01-06T12:30:49;9.73;;;6.75;;
18249;SDS011;27980;52.126;5.572;2024-01-06T12:33:17;12.13;;;7.25;;
18249;SDS011;27980;52.126;5.572;2024-01-06T12:36:00;12.23;;;7.25;;
18249;SDS011;27980;52.126;5.572;2024-01-06T12:38:30;11.80;;;7.15;;
18249;SDS011;27980;52.126;5.572;2024-01-06T12:40:56;11.07;;;7.28;;
18249;SDS011;27980;52.126;5.572;2024-01-06T12:43:23;10.57;;;6.45;;
18249;SDS011;27980;52.126;5.572;2024-01-06T12:45:50;10.57;;;7.00;;
18249;SDS011;27980;52.126;5.572;2024-01-06T12:48:19;10.32;;;6.95;;
18249;SDS011;27980;52.126;5.572;2024-01-06T12:50:46;12.13;;;7.05;;
18249;SDS011;27980;52.126;5.572;2024-01-06T12:53:14;10.85;;;7.15;;
18249;SDS011;27980;52.126;5.572;2024-01-06T12:55:43;9.90;;;6.68;;
18249;SDS011;27980;52.126;5.572;2024-01-06T12:58:17;10.35;;;6.55;;
18249;SDS011;27980;52.126;5.572;2024-01-06T13:00:44;9.88;;;6.60;;
18249;SDS011;27980;52.126;5.572;2024-01-06T13:03:14;13.20;;;7.18;;
18249;SDS011;27980;52.126;5.572;2024-01-06T13:05:40;10.07;;;6.38;;
18249;SDS011;27980;52.126;5.572;2024-01-06T13:08:06;11.55;;;7.35;;
18249;SDS011;27980;52.126;5.572;2024-01-06T13:10:34;11.38;;;7.35;;
18249;SDS011;27980;52.126;5.572;2024-01-06T13:13:01;9.65;;;6.70;;
18249;SDS011;27980;52.126;5.572;2024-01-06T13:15:27;15.57;;;8.20;;
18249;SDS011;27980;52.126;5.572;2024-01-06T13:17:54;12.68;;;7.45;;
18249;SDS011;27980;52.126;5.572;2024-01-06T13:20:22;11.00;;;7.03;;
18249;SDS011;27980;52.126;5.572;2024-01-06T13:22:48;16.15;;;7.75;;
18249;SDS011;27980;52.126;5.572;2024-01-06T13:25:16;10.98;;;7.10;;
18249;SDS011;27980;52.126;5.572;2024-01-06T13:27:46;11.40;;;7.50;;
18249;SDS011;27980;52.126;5.572;2024-01-06T13:30:13;11.15;;;7.20;;
18249;SDS011;27980;52.126;5.572;2024-01-06T13:32:39;12.98;;;7.97;;
18249;SDS011;27980;52.126;5.572;2024-01-06T13:35:06;11.65;;;7.38;;
18249;SDS011;27980;52.126;5.572;2024-01-06T13:37:35;11.15;;;7.75;;
18249;SDS011;27980;52.126;5.572;2024-01-06T13:40:02;13.75;;;8.35;;
18249;SDS011;27980;52.126;5.572;2024-01-06T13:42:28;12.18;;;7.60;;
18249;SDS011;27980;52.126;5.572;2024-01-06T13:44:56;11.15;;;7.85;;
18249;SDS011;27980;52.126;5.572;2024-01-06T13:47:25;15.68;;;7.63;;
18249;SDS011;27980;52.126;5.572;2024-01-06T13:49:51;12.98;;;7.82;;
18249;SDS011;27980;52.126;5.572;2024-01-06T13:52:21;13.90;;;7.72;;
18249;SDS011;27980;52.126;5.572;2024-01-06T13:54:48;15.27;;;7.88;;
18249;SDS011;27980;52.126;5.572;2024-01-06T13:57:14;12.77;;;8.15;;
18249;SDS011;27980;52.126;5.572;2024-01-06T13:59:40;12.15;;;8.00;;
18249;SDS011;27980;52.126;5.572;2024-01-06T14:02:09;9.85;;;7.50;;
18249;SDS011;27980;52.126;5.572;2024-01-06T14:04:35;11.23;;;7.40;;
18249;SDS011;27980;52.126;5.572;2024-01-06T14:07:02;12.35;;;7.68;;
18249;SDS011;27980;52.126;5.572;2024-01-06T14:09:29;9.43;;;6.63;;
18249;SDS011;27980;52.126;5.572;2024-01-06T14:11:56;9.70;;;6.22;;
18249;SDS011;27980;52.126;5.572;2024-01-06T14:14:23;11.65;;;7.18;;
18249;SDS011;27980;52.126;5.572;2024-01-06T14:16:49;12.55;;;7.53;;
18249;SDS011;27980;52.126;5.572;2024-01-06T14:19:18;12.02;;;6.93;;
18249;SDS011;27980;52.126;5.572;2024-01-06T14:21:46;11.20;;;6.35;;
18249;SDS011;27980;52.126;5.572;2024-01-06T14:24:15;9.70;;;6.57;;
18249;SDS011;27980;52.126;5.572;2024-01-06T14:26:43;9.57;;;6.20;;
18249;SDS011;27980;52.126;5.572;2024-01-06T14:29:10;12.57;;;6.82;;
18249;SDS011;27980;52.126;5.572;2024-01-06T14:31:41;12.05;;;6.63;;
18249;SDS011;27980;52.126;5.572;2024-01-06T14:34:08;12.95;;;6.78;;
18249;SDS011;27980;52.126;5.572;2024-01-06T14:36:36;11.32;;;7.10;;
18249;SDS011;27980;52.126;5.572;2024-01-06T14:39:03;10.68;;;6.45;;
18249;SDS011;27980;52.126;5.572;2024-01-06T14:41:31;9.35;;;6.03;;